Time;durP1;ratioP1;P1;durP2;ratioP2;P2;SDS_P1;SDS_P2;PMS_P1;PMS_P2;Temp;Humidity;BMP_temperature;BMP_pressure;BME280_temperature;BME280_humidity;BME280_pressure;Samples;Min_cycle;Max_cycle;Signal;HPM_P1;HPM_P2
2024/03/07 00:02:23;;;;;;;11.68;7.93;;;6.10;99.90;;;;;;4933863;29;20058;-65
2024/03/07 00:04:51;;;;;;;16.08;8.52;;;6.00;99.90;;;;;;4940273;29;20059;-65
2024/03/07 00:07:18;;;;;;;11.63;7.85;;;6.00;99.90;;;;;;4937423;29;20064;-65
2024/03/07 00:09:46;;;;;;;14.52;8.05;;;5.90;99.90;;;;;;4938561;29;20059;-65
2024/03/07 00:12:13;;;;;;;11.68;7.90;;;5.90;99.90;;;;;;4933471;29;20529;-65
2024/03/07 00:14:40;;;;;;;11.20;8.25;;;6.00;99.90;;;;;;4935475;29;20059;-65
2024/03/07 00:17:06;;;;;;;14.18;8.50;;;6.00;99.90;;;;;;4933558;29;20047;-65
2024/03/07 00:19:33;;;;;;;12.68;9.45;;;5.90;99.90;;;;;;4934877;29;20103;-65
2024/03/07 00:22:00;;;;;;;15.13;10.05;;;5.90;99.90;;;;;;4930723;29;20051;-64
2024/03/07 00:24:27;;;;;;;12.32;8.48;;;6.10;99.90;;;;;;4936227;29;20146;-64
2024/03/07 00:26:54;;;;;;;12.27;8.30;;;6.10;99.90;;;;;;4935630;29;20103;-64
2024/03/07 00:29:21;;;;;;;13.40;9.23;;;6.20;99.90;;;;;;4937767;29;20052;-64
2024/03/07 00:31:48;;;;;;;16.08;9.60;;;6.20;99.90;;;;;;4935736;29;20127;-64
2024/03/07 00:34:19;;;;;;;18.10;10.07;;;6.30;99.90;;;;;;4936223;29;20074;-64
2024/03/07 00:36:51;;;;;;;13.50;9.32;;;6.40;99.90;;;;;;4931822;29;20046;-64
2024/03/07 00:39:19;;;;;;;18.35;10.18;;;6.30;99.90;;;;;;4933392;29;20051;-64
2024/03/07 00:41:47;;;;;;;15.63;9.02;;;6.30;99.90;;;;;;4933476;29;20071;-64
2024/03/07 00:44:14;;;;;;;13.73;9.00;;;6.40;99.90;;;;;;4936201;29;20051;-64
2024/03/07 00:46:40;;;;;;;14.90;9.55;;;6.40;99.90;;;;;;4939191;29;20051;-64
2024/03/07 00:49:07;;;;;;;17.55;10.65;;;6.40;99.90;;;;;;4934925;29;20071;-64
2024/03/07 00:51:35;;;;;;;16.67;10.02;;;6.40;99.90;;;;;;4938312;29;20464;-64
2024/03/07 00:54:01;;;;;;;15.77;10.13;;;6.40;99.90;;;;;;4932931;29;20063;-64
2024/03/07 00:56:28;;;;;;;15.85;8.68;;;6.40;99.90;;;;;;4938062;29;20055;-64
2024/03/07 00:58:56;;;;;;;10.93;8.48;;;6.30;99.90;;;;;;4939284;29;20052;-64
2024/03/07 01:01:24;;;;;;;13.15;7.43;;;6.20;99.90;;;;;;4934468;29;20143;-64
2024/03/07 01:03:51;;;;;;;11.88;7.72;;;6.10;99.90;;;;;;4938152;29;20132;-64
2024/03/07 01:06:19;;;;;;;10.95;7.68;;;6.00;99.90;;;;;;4938425;29;20134;-64
2024/03/07 01:08:46;;;;;;;11.77;7.70;;;6.00;99.90;;;;;;4917812;29;20108;-64
2024/03/07 01:11:13;;;;;;;11.52;6.95;;;6.10;99.90;;;;;;4934764;29;20670;-64
2024/03/07 01:13:41;;;;;;;8.82;6.97;;;6.00;99.90;;;;;;4933843;29;20047;-64
2024/03/07 01:16:08;;;;;;;11.60;7.35;;;6.00;99.90;;;;;;4938196;29;20054;-64
2024/03/07 01:18:34;;;;;;;15.65;8.77;;;6.00;99.90;;;;;;4934374;29;20118;-64
2024/03/07 01:21:02;;;;;;;14.23;9.40;;;5.90;99.90;;;;;;4935028;29;20407;-64
2024/03/07 01:23:30;;;;;;;14.43;10.85;;;5.90;99.90;;;;;;4933933;29;20529;-64
2024/03/07 01:25:58;;;;;;;19.40;11.48;;;5.90;99.90;;;;;;4933755;29;20063;-64
2024/03/07 01:28:29;;;;;;;17.30;11.77;;;5.90;99.90;;;;;;4933248;29;20553;-64
2024/03/07 01:30:58;;;;;;;17.10;11.70;;;5.80;99.90;;;;;;4933701;29;20043;-64
2024/03/07 01:33:25;;;;;;;20.02;11.93;;;5.70;99.90;;;;;;4937730;29;20051;-64
2024/03/07 01:35:52;;;;;;;15.38;10.82;;;5.70;99.90;;;;;;4937121;29;20047;-64
2024/03/07 01:38:19;;;;;;;16.58;11.07;;;5.80;99.90;;;;;;4936687;29;20047;-64
2024/03/07 01:40:46;;;;;;;16.45;9.90;;;5.80;99.90;;;;;;4937468;29;20107;-64
2024/03/07 01:43:12;;;;;;;14.27;9.68;;;5.80;99.90;;;;;;4933835;29;20084;-64
2024/03/07 01:45:39;;;;;;;10.40;8.13;;;5.80;99.90;;;;;;4937542;29;20528;-64
2024/03/07 01:48:09;;;;;;;15.10;8.70;;;5.70;99.90;;;;;;4933338;29;20106;-64
2024/03/07 01:50:38;;;;;;;13.02;9.32;;;5.70;99.90;;;;;;4933670;29;20083;-64
2024/03/07 01:53:08;;;;;;;13.48;9.40;;;5.80;99.90;;;;;;4934007;29;20043;-64
2024/03/07 01:55:36;;;;;;;16.45;9.70;;;5.90;99.90;;;;;;4931709;29;20056;-62
2024/03/07 01:58:08;;;;;;;16.08;9.43;;;5.90;99.90;;;;;;4933869;29;20071;-64
2024/03/07 02:00:35;;;;;;;13.65;9.45;;;5.80;99.90;;;;;;4931441;29;20051;-64
2024/03/07 02:03:02;;;;;;;15.95;10.38;;;5.80;99.90;;;;;;4938629;29;20052;-64
2024/03/07 02:05:29;;;;;;;16.50;10.73;;;5.80;99.90;;;;;;4932848;29;20055;-64
2024/03/07 02:07:56;;;;;;;15.32;10.52;;;5.80;99.90;;;;;;4935219;29;20044;-64
2024/03/07 02:10:22;;;;;;;21.70;11.52;;;5.80;99.90;;;;;;4931503;29;20058;-64
2024/03/07 02:12:49;;;;;;;17.30;11.80;;;5.80;99.90;;;;;;4932867;29;20051;-64
2024/03/07 02:15:16;;;;;;;17.92;12.32;;;5.90;99.90;;;;;;4935650;29;20111;-64
2024/03/07 02:17:44;;;;;;;19.10;13.20;;;5.80;99.90;;;;;;4937177;29;20424;-63
2024/03/07 02:20:11;;;;;;;17.23;12.48;;;5.80;99.90;;;;;;4932949;29;20048;-64
2024/03/07 02:22:38;;;;;;;20.45;12.85;;;5.90;99.90;;;;;;4934701;29;20528;-64
2024/03/07 02:25:06;;;;;;;20.02;12.80;;;6.00;99.90;;;;;;4931296;29;20047;-64
2024/03/07 02:27:33;;;;;;;20.63;13.63;;;6.00;99.90;;;;;;4938979;29;20055;-64
2024/03/07 02:30:03;;;;;;;21.23;13.70;;;6.00;99.90;;;;;;4936245;29;20043;-64
2024/03/07 02:32:30;;;;;;;20.00;14.32;;;6.00;99.90;;;;;;4932632;29;20039;-63
2024/03/07 02:34:57;;;;;;;22.65;14.73;;;6.00;99.90;;;;;;4933124;29;20494;-64
2024/03/07 02:37:23;;;;;;;22.55;13.95;;;6.00;99.90;;;;;;4933669;29;20115;-64
2024/03/07 02:39:50;;;;;;;23.80;14.80;;;6.10;99.90;;;;;;4933937;29;20051;-64
2024/03/07 02:42:17;;;;;;;18.35;12.55;;;6.10;99.90;;;;;;4935187;29;20056;-64
2024/03/07 02:44:44;;;;;;;18.73;13.32;;;6.10;99.90;;;;;;4933032;29;20103;-64
2024/03/07 02:47:11;;;;;;;18.80;12.13;;;6.10;99.90;;;;;;4933532;29;20432;-64
2024/03/07 02:49:38;;;;;;;22.65;13.70;;;6.10;99.90;;;;;;4935623;29;20047;-64
2024/03/07 02:52:07;;;;;;;17.63;12.65;;;6.20;99.90;;;;;;4930677;29;20075;-64
2024/03/07 02:54:34;;;;;;;16.05;11.60;;;6.20;99.90;;;;;;4937487;29;20279;-64
2024/03/07 02:57:01;;;;;;;21.13;12.35;;;6.20;99.90;;;;;;4934487;29;20063;-64
2024/03/07 02:59:29;;;;;;;17.45;12.73;;;6.10;99.90;;;;;;4931201;29;20052;-64
2024/03/07 03:01:55;;;;;;;17.23;12.30;;;6.20;99.90;;;;;;4933633;29;20054;-64
2024/03/07 03:04:22;;;;;;;15.75;11.90;;;6.20;99.90;;;;;;4930989;29;20075;-64
2024/03/07 03:06:49;;;;;;;17.92;11.48;;;6.20;99.90;;;;;;4929793;29;20051;-64
2024/03/07 03:09:17;;;;;;;16.30;12.38;;;6.10;99.90;;;;;;4935414;29;20500;-64
2024/03/07 03:11:44;;;;;;;17.10;12.00;;;6.00;99.90;;;;;;4935361;29;20147;-64
2024/03/07 03:14:13;;;;;;;18.13;12.90;;;5.90;99.90;;;;;;4930066;29;20413;-64
2024/03/07 03:16:43;;;;;;;19.25;12.73;;;6.00;99.90;;;;;;4929421;29;20047;-64
2024/03/07 03:19:14;;;;;;;18.42;13.27;;;5.90;99.90;;;;;;4935665;29;20062;-64
2024/03/07 03:21:42;;;;;;;18.30;13.23;;;5.80;99.90;;;;;;4931251;29;20139;-64
2024/03/07 03:24:09;;;;;;;20.63;14.55;;;5.80;99.90;;;;;;4937787;29;20492;-64
2024/03/07 03:26:36;;;;;;;21.95;15.07;;;5.80;99.90;;;;;;4934208;29;20420;-64
2024/03/07 03:29:03;;;;;;;22.45;14.93;;;5.80;99.90;;;;;;4934372;29;20054;-64
2024/03/07 03:31:30;;;;;;;21.27;15.07;;;5.90;99.90;;;;;;4934688;29;20059;-64
2024/03/07 03:33:57;;;;;;;24.25;16.92;;;6.00;99.90;;;;;;4933513;29;20054;-64
2024/03/07 03:36:25;;;;;;;23.42;16.23;;;6.00;99.90;;;;;;4928701;29;20528;-64
2024/03/07 03:38:52;;;;;;;23.50;15.93;;;6.10;99.90;;;;;;4937569;29;20047;-64
2024/03/07 03:41:18;;;;;;;20.75;14.80;;;6.10;99.90;;;;;;4933985;29;20086;-64
2024/03/07 03:43:45;;;;;;;23.55;15.82;;;6.20;99.90;;;;;;4935022;29;20059;-64
2024/03/07 03:46:12;;;;;;;22.05;15.98;;;6.20;99.90;;;;;;4931392;29;20058;-64
2024/03/07 03:48:40;;;;;;;25.67;17.00;;;6.20;99.90;;;;;;4931814;29;20094;-64
2024/03/07 03:51:12;;;;;;;25.98;16.33;;;6.20;99.90;;;;;;4935529;29;20612;-64
2024/03/07 03:53:40;;;;;;;22.80;16.08;;;6.20;99.90;;;;;;4935662;29;20051;-64
2024/03/07 03:56:11;;;;;;;23.60;15.35;;;6.10;99.90;;;;;;4932441;29;20446;-64
2024/03/07 03:58:40;;;;;;;27.83;16.10;;;6.00;99.90;;;;;;4934306;29;20066;-64
2024/03/07 04:01:08;;;;;;;24.13;15.35;;;6.00;99.90;;;;;;4933980;29;20074;-64
2024/03/07 04:03:35;;;;;;;24.95;16.55;;;6.10;99.90;;;;;;4934265;29;20048;-64
2024/03/07 04:06:02;;;;;;;23.23;15.68;;;6.10;99.90;;;;;;4932795;29;20127;-64
2024/03/07 04:08:29;;;;;;;26.38;17.05;;;6.20;99.90;;;;;;4931325;29;20055;-64
2024/03/07 04:10:55;;;;;;;22.65;16.42;;;6.20;99.90;;;;;;4933180;29;20501;-64
2024/03/07 04:13:22;;;;;;;26.33;17.27;;;6.30;99.90;;;;;;4932286;29;20052;-64
2024/03/07 04:15:49;;;;;;;23.75;15.55;;;6.30;99.90;;;;;;4937374;29;20092;-64
2024/03/07 04:18:16;;;;;;;22.55;15.95;;;6.30;99.90;;;;;;4932334;29;20051;-64
2024/03/07 04:20:44;;;;;;;26.65;16.27;;;6.30;99.90;;;;;;4931734;29;20089;-64
2024/03/07 04:23:10;;;;;;;22.15;16.23;;;6.20;99.90;;;;;;4929439;29;20504;-64
2024/03/07 04:25:38;;;;;;;23.52;16.42;;;6.30;99.90;;;;;;4939278;29;20059;-64
2024/03/07 04:28:05;;;;;;;27.98;16.50;;;6.30;99.90;;;;;;4931919;29;20051;-64
2024/03/07 04:30:32;;;;;;;21.35;15.65;;;6.30;99.90;;;;;;4933832;29;20520;-64
2024/03/07 04:32:59;;;;;;;24.17;16.20;;;6.30;99.90;;;;;;4932242;29;20398;-64
2024/03/07 04:35:26;;;;;;;26.08;15.75;;;6.30;99.90;;;;;;4929075;29;20043;-64
2024/03/07 04:37:53;;;;;;;22.25;15.45;;;6.30;99.90;;;;;;4936956;29;20052;-64
2024/03/07 04:40:19;;;;;;;23.27;15.35;;;6.40;99.90;;;;;;4929639;29;20589;-63
2024/03/07 04:42:50;;;;;;;23.23;15.80;;;6.30;99.90;;;;;;4933373;29;20052;-64
2024/03/07 04:45:18;;;;;;;22.13;15.43;;;6.40;99.90;;;;;;4930576;29;20052;-64
2024/03/07 04:47:46;;;;;;;22.02;15.73;;;6.40;99.90;;;;;;4934416;29;20051;-64
2024/03/07 04:50:17;;;;;;;24.52;15.90;;;6.40;99.90;;;;;;4938687;29;20054;-64
2024/03/07 04:52:45;;;;;;;26.33;16.70;;;6.40;99.90;;;;;;4939409;29;20486;-64
2024/03/07 04:55:12;;;;;;;25.20;16.08;;;6.40;99.90;;;;;;4936325;29;20047;-64
2024/03/07 04:57:41;;;;;;;20.73;15.02;;;6.30;99.90;;;;;;4934663;29;20528;-64
2024/03/07 05:00:15;;;;;;;19.98;14.63;;;6.30;99.90;;;;;;4939672;29;20056;-64
2024/03/07 05:02:46;;;;;;;25.00;16.25;;;6.30;99.90;;;;;;4936722;29;20433;-64
2024/03/07 05:05:14;;;;;;;23.25;14.18;;;6.30;99.90;;;;;;4935025;29;20142;-64
2024/03/07 05:07:41;;;;;;;22.20;15.52;;;6.30;99.90;;;;;;4935651;29;20055;-64
2024/03/07 05:10:08;;;;;;;18.50;13.57;;;6.30;99.90;;;;;;4934801;29;20056;-64
2024/03/07 05:12:36;;;;;;;20.15;13.98;;;6.30;99.90;;;;;;4938477;29;20671;-64
2024/03/07 05:15:05;;;;;;;22.77;14.57;;;6.30;99.90;;;;;;4938712;29;20047;-64
2024/03/07 05:17:34;;;;;;;21.77;15.05;;;6.30;99.90;;;;;;4919530;29;20409;-64
2024/03/07 05:20:03;;;;;;;19.35;14.52;;;6.30;99.90;;;;;;4934263;29;20493;-64
2024/03/07 05:22:30;;;;;;;23.48;15.13;;;6.40;99.90;;;;;;4934503;29;20047;-64
2024/03/07 05:24:58;;;;;;;25.65;15.32;;;6.40;99.90;;;;;;4936392;29;20133;-64
2024/03/07 05:27:27;;;;;;;22.38;14.85;;;6.50;99.90;;;;;;4933354;29;20086;-64
2024/03/07 05:29:55;;;;;;;23.10;14.88;;;6.50;99.90;;;;;;4931315;29;20047;-64
2024/03/07 05:32:24;;;;;;;18.58;12.95;;;6.50;99.90;;;;;;4935478;29;20505;-64
2024/03/07 05:34:53;;;;;;;18.80;12.10;;;6.50;99.90;;;;;;4930975;29;20436;-64
2024/03/07 05:37:21;;;;;;;18.55;12.65;;;6.50;99.90;;;;;;4932300;29;20051;-64
2024/03/07 05:39:49;;;;;;;16.23;12.00;;;6.40;99.90;;;;;;4933706;29;20412;-64
2024/03/07 05:42:16;;;;;;;17.38;11.35;;;6.40;99.90;;;;;;4935800;29;20055;-64
2024/03/07 05:44:43;;;;;;;16.67;11.73;;;6.40;99.90;;;;;;4933592;29;20044;-65
2024/03/07 05:47:13;;;;;;;20.33;12.57;;;6.30;99.90;;;;;;4936365;29;20062;-65
2024/03/07 05:49:40;;;;;;;;;;;6.30;99.90;;;;;;4931282;29;20063;-65
2024/03/07 05:52:07;;;;;;;15.77;10.82;;;6.20;99.90;;;;;;4934520;29;19933;-66
2024/03/07 05:54:34;;;;;;;15.45;11.15;;;6.20;99.90;;;;;;4931963;29;20043;-65
2024/03/07 05:57:02;;;;;;;13.43;10.70;;;6.20;99.90;;;;;;4935848;29;20071;-65
2024/03/07 05:59:30;;;;;;;17.52;12.00;;;6.30;99.90;;;;;;4930699;29;20051;-65
2024/03/07 06:01:57;;;;;;;17.67;11.50;;;6.30;99.90;;;;;;4933795;29;20143;-65
2024/03/07 06:04:24;;;;;;;14.95;11.10;;;6.30;99.90;;;;;;4931886;29;20051;-65
2024/03/07 06:06:54;;;;;;;19.27;12.07;;;6.40;99.90;;;;;;4939269;29;20149;-65
2024/03/07 06:09:21;;;;;;;16.48;11.77;;;6.40;99.90;;;;;;4930371;29;20052;-65
2024/03/07 06:11:49;;;;;;;16.33;11.88;;;6.40;99.90;;;;;;4933081;29;20058;-65
2024/03/07 06:14:17;;;;;;;17.20;11.10;;;6.40;99.90;;;;;;4933586;29;20083;-65
2024/03/07 06:16:44;;;;;;;17.10;11.25;;;6.50;99.90;;;;;;4936320;29;20075;-65
2024/03/07 06:19:11;;;;;;;16.23;12.00;;;6.50;99.90;;;;;;4930065;29;20048;-65
2024/03/07 06:21:39;;;;;;;16.52;11.60;;;6.50;99.90;;;;;;4932933;29;20179;-65
2024/03/07 06:24:08;;;;;;;22.88;15.27;;;6.60;99.90;;;;;;4938056;29;20067;-64
2024/03/07 06:26:37;;;;;;;20.23;12.98;;;6.60;99.90;;;;;;4935943;29;20059;-64
2024/03/07 06:29:08;;;;;;;16.63;11.43;;;6.60;99.90;;;;;;4934024;29;20168;-64
2024/03/07 06:31:34;;;;;;;16.65;11.32;;;6.60;99.90;;;;;;4932343;29;20075;-64
2024/03/07 06:34:01;;;;;;;14.73;9.90;;;6.60;99.90;;;;;;4935271;29;20432;-64
2024/03/07 06:36:28;;;;;;;14.95;11.25;;;6.50;99.90;;;;;;4932505;29;20087;-64
2024/03/07 06:38:55;;;;;;;16.17;10.23;;;6.50;99.90;;;;;;4932642;29;20052;-64
2024/03/07 06:41:22;;;;;;;16.02;10.20;;;6.50;99.90;;;;;;4933439;29;20079;-65
2024/03/07 06:43:49;;;;;;;16.85;10.95;;;6.40;99.90;;;;;;4932694;29;20113;-65
2024/03/07 06:46:16;;;;;;;16.45;10.65;;;6.30;99.90;;;;;;4927131;29;20048;-64
2024/03/07 06:48:44;;;;;;;19.85;12.00;;;6.40;99.90;;;;;;4931814;29;20114;-66
2024/03/07 06:51:11;;;;;;;17.75;12.02;;;6.50;99.90;;;;;;4930052;29;20048;-65
2024/03/07 06:53:38;;;;;;;18.30;11.05;;;6.60;99.90;;;;;;4933796;29;20805;-61
2024/03/07 06:56:06;;;;;;;17.95;11.60;;;6.60;99.90;;;;;;4928939;29;20086;-63
2024/03/07 06:58:33;;;;;;;16.95;10.98;;;6.60;99.90;;;;;;4935267;29;20051;-63
2024/03/07 07:01:01;;;;;;;15.00;10.27;;;6.70;99.90;;;;;;4930939;29;20444;-63
2024/03/07 07:03:28;;;;;;;13.60;9.88;;;6.70;99.90;;;;;;4915569;29;20051;-62
2024/03/07 07:05:54;;;;;;;15.27;10.50;;;6.70;99.90;;;;;;4931365;29;20504;-63
2024/03/07 07:08:22;;;;;;;17.00;9.73;;;6.60;99.90;;;;;;4926741;29;20063;-63
2024/03/07 07:10:48;;;;;;;15.52;9.80;;;6.60;99.90;;;;;;4930184;29;20055;-62
2024/03/07 07:13:16;;;;;;;13.85;9.57;;;6.60;99.90;;;;;;4932000;29;20047;-62
2024/03/07 07:15:43;;;;;;;16.00;9.63;;;6.70;99.90;;;;;;4931596;29;20071;-62
2024/03/07 07:18:10;;;;;;;16.83;9.85;;;6.70;99.90;;;;;;4938578;29;20047;-64
2024/03/07 07:20:37;;;;;;;16.17;9.90;;;6.80;99.90;;;;;;4931845;29;20583;-64
2024/03/07 07:23:04;;;;;;;12.88;8.75;;;6.90;99.90;;;;;;4934541;29;20066;-64
2024/03/07 07:25:31;;;;;;;15.70;9.90;;;7.00;99.90;;;;;;4937257;29;20126;-64
2024/03/07 07:27:58;;;;;;;13.18;9.20;;;7.00;99.90;;;;;;4933475;29;20044;-64
2024/03/07 07:30:26;;;;;;;14.07;8.98;;;7.10;99.90;;;;;;4934705;29;20138;-63
2024/03/07 07:32:54;;;;;;;13.95;8.57;;;7.10;99.90;;;;;;4925731;29;20051;-64
2024/03/07 07:35:21;;;;;;;16.65;9.95;;;7.00;99.90;;;;;;4937285;29;20059;-64
2024/03/07 07:37:53;;;;;;;13.07;9.23;;;7.20;99.90;;;;;;4929845;29;20556;-64
2024/03/07 07:40:22;;;;;;;17.58;9.65;;;7.30;99.90;;;;;;4928950;29;20111;-62
2024/03/07 07:42:52;;;;;;;16.05;9.48;;;7.40;99.90;;;;;;4928749;29;20066;-64
2024/03/07 07:45:22;;;;;;;14.23;10.07;;;7.50;99.90;;;;;;4932427;29;20056;-65
2024/03/07 07:47:51;;;;;;;15.15;10.30;;;7.70;99.90;;;;;;4933781;29;20404;-65
2024/03/07 07:50:19;;;;;;;14.50;9.70;;;7.80;99.90;;;;;;4936137;29;20080;-64
2024/03/07 07:52:50;;;;;;;16.48;9.73;;;7.70;99.90;;;;;;4939409;29;20051;-65
2024/03/07 07:55:17;;;;;;;15.00;9.98;;;7.90;99.90;;;;;;4928303;29;20086;-61
2024/03/07 07:57:46;;;;;;;21.67;14.18;;;8.10;99.90;;;;;;4931258;29;20134;-64
2024/03/07 08:00:24;;;;;;;25.38;15.57;;;8.10;99.90;;;;;;4931974;29;20051;-60
2024/03/07 08:02:57;;;;;;;22.73;14.13;;;8.10;99.90;;;;;;4939679;29;20066;-60
2024/03/07 08:05:29;;;;;;;22.15;15.38;;;8.20;99.90;;;;;;4929190;29;20515;-62
2024/03/07 08:07:58;;;;;;;22.38;14.20;;;8.50;99.90;;;;;;4935349;29;20102;-61
2024/03/07 08:10:28;;;;;;;22.88;13.77;;;8.80;99.90;;;;;;4934646;29;20115;-60
2024/03/07 08:12:57;;;;;;;18.25;12.38;;;9.00;99.90;;;;;;4932023;29;20126;-60
2024/03/07 08:15:27;;;;;;;19.95;12.95;;;9.20;99.90;;;;;;4926575;29;20048;-64
2024/03/07 08:17:55;;;;;;;15.43;11.15;;;9.20;99.90;;;;;;4932007;29;20126;-60
2024/03/07 08:20:23;;;;;;;15.73;11.18;;;9.40;99.90;;;;;;4927286;29;20044;-61
2024/03/07 08:22:52;;;;;;;18.10;11.90;;;9.30;99.90;;;;;;4929350;29;20048;-63
2024/03/07 08:25:20;;;;;;;17.65;11.30;;;9.30;99.90;;;;;;4927526;29;20054;-63
2024/03/07 08:27:49;;;;;;;16.05;10.90;;;9.30;99.90;;;;;;4935259;29;20048;-61
2024/03/07 08:30:16;;;;;;;20.10;11.52;;;9.40;99.90;;;;;;4931848;29;20051;-60
2024/03/07 08:32:51;;;;;;;13.25;10.15;;;9.40;99.90;;;;;;4932561;29;20047;-59
2024/03/07 08:35:19;;;;;;;17.27;11.52;;;9.30;99.90;;;;;;4930029;29;20062;-61
2024/03/07 08:37:52;;;;;;;15.48;11.43;;;9.30;99.90;;;;;;4936250;29;20047;-61
2024/03/07 08:40:22;;;;;;;18.98;13.60;;;9.40;99.90;;;;;;4930394;29;20062;-62
2024/03/07 08:42:54;;;;;;;21.88;14.82;;;9.20;99.90;;;;;;4937613;29;20055;-62
2024/03/07 08:45:21;;;;;;;24.65;15.40;;;9.10;99.90;;;;;;4934580;29;20044;-62
2024/03/07 08:47:49;;;;;;;21.55;14.27;;;9.00;99.90;;;;;;4937607;29;20116;-62
2024/03/07 08:50:20;;;;;;;18.23;13.80;;;9.10;99.90;;;;;;4934978;29;20044;-60
2024/03/07 08:52:48;;;;;;;18.88;13.55;;;9.00;99.90;;;;;;4937177;29;20095;-61
2024/03/07 08:55:16;;;;;;;21.58;13.85;;;8.80;99.90;;;;;;4933807;29;20555;-60
2024/03/07 08:57:45;;;;;;;20.60;14.57;;;8.80;99.90;;;;;;4941937;28;20040;-60
2024/03/07 09:00:23;;;;;;;18.70;13.43;;;8.70;99.90;;;;;;4930779;29;20051;-60
2024/03/07 09:02:55;;;;;;;18.38;12.90;;;8.70;99.90;;;;;;4931955;29;20397;-61
2024/03/07 09:05:23;;;;;;;16.15;12.57;;;8.70;99.90;;;;;;4935801;29;20051;-60
2024/03/07 09:07:54;;;;;;;19.23;13.45;;;8.70;99.90;;;;;;4931991;29;20070;-61
2024/03/07 09:10:21;;;;;;;17.55;12.80;;;8.70;99.90;;;;;;4935636;29;20048;-60
2024/03/07 09:12:51;;;;;;;17.70;12.45;;;8.80;99.90;;;;;;4930095;29;20544;-63
2024/03/07 09:15:21;;;;;;;18.67;13.90;;;8.80;99.90;;;;;;4931881;29;20043;-63
2024/03/07 09:17:48;;;;;;;17.73;12.77;;;8.70;99.90;;;;;;4931870;29;20066;-63
2024/03/07 09:20:15;;;;;;;17.67;13.10;;;8.80;99.90;;;;;;4927502;29;20047;-62
2024/03/07 09:22:50;;;;;;;18.92;12.82;;;8.80;99.90;;;;;;4930668;29;20179;-60
2024/03/07 09:25:18;;;;;;;16.85;11.05;;;8.60;99.90;;;;;;4936597;29;20062;-61
2024/03/07 09:27:46;;;;;;;16.58;12.40;;;8.60;99.90;;;;;;4930878;29;20083;-61
2024/03/07 09:30:14;;;;;;;16.92;12.02;;;8.70;99.90;;;;;;4931866;29;20485;-61
2024/03/07 09:32:42;;;;;;;17.95;12.43;;;8.60;99.90;;;;;;4927830;29;20569;-62
2024/03/07 09:35:13;;;;;;;18.58;13.30;;;8.40;99.90;;;;;;4928735;29;20052;-61
2024/03/07 09:37:42;;;;;;;20.08;12.68;;;8.50;99.90;;;;;;4928569;29;20043;-62
2024/03/07 09:40:13;;;;;;;18.45;12.90;;;8.50;99.90;;;;;;4928420;29;20115;-60
2024/03/07 09:42:47;;;;;;;19.50;13.52;;;8.40;99.90;;;;;;4933689;29;20054;-63
2024/03/07 09:45:17;;;;;;;22.60;15.07;;;8.40;99.90;;;;;;4936463;29;20060;-62
2024/03/07 09:47:49;;;;;;;25.83;16.50;;;8.30;99.90;;;;;;4931836;29;20087;-61
2024/03/07 09:50:21;;;;;;;25.05;16.77;;;8.40;99.90;;;;;;4932111;29;20055;-62
2024/03/07 09:52:52;;;;;;;26.92;19.00;;;8.40;99.90;;;;;;4934299;29;20047;-61
2024/03/07 09:55:20;;;;;;;33.35;19.95;;;8.40;99.90;;;;;;4933313;29;20082;-62
2024/03/07 09:57:48;;;;;;;32.78;19.20;;;8.30;99.90;;;;;;4931351;29;20054;-61
2024/03/07 10:00:25;;;;;;;31.55;18.90;;;8.30;99.90;;;;;;4931431;29;20461;-62
2024/03/07 10:03:13;;;;;;;33.00;20.48;;;8.20;99.90;;;;;;4934407;29;20044;-59
2024/03/07 10:05:42;;;;;;;31.83;20.67;;;8.00;99.90;;;;;;4926883;29;20056;-59
2024/03/07 10:08:10;;;;;;;32.15;20.23;;;8.20;99.90;;;;;;4933288;28;20869;-61
2024/03/07 10:10:37;;;;;;;31.85;21.48;;;8.00;99.90;;;;;;4932897;29;20063;-60
2024/03/07 10:13:05;;;;;;;31.65;18.65;;;7.90;99.90;;;;;;4928125;29;20107;-59
2024/03/07 10:15:36;;;;;;;31.95;19.38;;;7.90;99.90;;;;;;4929569;29;20052;-60
2024/03/07 10:18:06;;;;;;;34.90;20.08;;;7.90;99.90;;;;;;4933533;29;20043;-60
2024/03/07 10:20:33;;;;;;;31.15;19.73;;;8.10;99.90;;;;;;4928768;29;20058;-60
2024/03/07 10:23:02;;;;;;;35.00;21.90;;;8.00;99.90;;;;;;4931397;29;20043;-60
2024/03/07 10:25:28;;;;;;;31.63;19.52;;;8.00;99.90;;;;;;4928561;29;20526;-60
2024/03/07 10:27:57;;;;;;;31.20;20.30;;;7.80;99.90;;;;;;4927544;29;20126;-59
2024/03/07 10:30:25;;;;;;;30.25;20.35;;;8.00;99.90;;;;;;4928688;29;20330;-59
2024/03/07 10:32:56;;;;;;;31.67;18.50;;;8.20;99.90;;;;;;4927773;29;20075;-59
2024/03/07 10:35:25;;;;;;;28.27;19.25;;;8.10;99.90;;;;;;4928167;29;20524;-60
2024/03/07 10:37:57;;;;;;;29.00;19.02;;;8.20;99.90;;;;;;4926741;29;20063;-56
2024/03/07 10:40:26;;;;;;;29.02;19.42;;;8.50;99.90;;;;;;4930769;29;20059;-58
2024/03/07 10:42:57;;;;;;;29.08;18.40;;;8.60;99.90;;;;;;4930483;29;20513;-58
2024/03/07 10:45:28;;;;;;;27.33;18.10;;;8.70;99.90;;;;;;4932934;29;20052;-59
2024/03/07 10:47:57;;;;;;;27.52;16.73;;;8.60;99.90;;;;;;4933506;29;20085;-59
2024/03/07 10:50:47;;;;;;;27.45;17.70;;;8.50;99.90;;;;;;4931709;29;20048;-59
2024/03/07 10:53:14;;;;;;;26.60;18.25;;;8.50;99.90;;;;;;4936577;29;20073;-59
2024/03/07 10:55:59;;;;;;;23.75;15.95;;;8.60;99.90;;;;;;4933880;29;20054;-59
2024/03/07 10:58:53;;;;;;;25.58;15.95;;;8.70;99.90;;;;;;4929920;29;20705;-62
2024/03/07 11:01:22;;;;;;;23.30;15.60;;;8.80;99.90;;;;;;4928736;29;20103;-61
2024/03/07 11:03:52;;;;;;;24.88;15.88;;;8.80;99.90;;;;;;4930027;29;20516;-62
2024/03/07 11:06:20;;;;;;;24.27;15.82;;;9.10;99.90;;;;;;4924371;29;20107;-62
2024/03/07 11:08:47;;;;;;;34.33;23.17;;;9.00;99.90;;;;;;4923540;29;20066;-64
2024/03/07 11:11:14;;;;;;;38.55;24.80;;;8.90;99.90;;;;;;4929579;29;20051;-62
2024/03/07 11:13:42;;;;;;;37.15;25.27;;;8.70;99.90;;;;;;4930035;29;20071;-63
2024/03/07 11:16:09;;;;;;;46.85;28.17;;;8.50;99.90;;;;;;4930375;29;20059;-63
2024/03/07 11:18:36;;;;;;;48.28;31.00;;;8.30;99.90;;;;;;4929899;29;20496;-61
2024/03/07 11:21:04;;;;;;;47.70;31.42;;;8.20;99.90;;;;;;4931687;29;20050;-63
2024/03/07 11:23:38;;;;;;;48.20;29.85;;;8.20;99.90;;;;;;4928954;29;20063;-63
2024/03/07 11:26:10;;;;;;;47.58;31.27;;;8.10;99.90;;;;;;4928902;29;20524;-63
2024/03/07 11:28:39;;;;;;;53.83;33.83;;;8.00;99.90;;;;;;4926748;29;20426;-63
2024/03/07 11:31:24;;;;;;;55.65;33.05;;;7.90;99.90;;;;;;4932190;29;20075;-63
2024/03/07 11:34:14;;;;;;;51.35;32.92;;;8.00;99.90;;;;;;4929327;29;20095;-63
2024/03/07 11:36:45;;;;;;;52.38;31.33;;;7.90;99.90;;;;;;4929617;29;20050;-63
2024/03/07 11:39:43;;;;;;;48.58;29.23;;;8.00;99.90;;;;;;4930719;29;20112;-63
2024/03/07 11:42:26;;;;;;;49.22;30.17;;;8.10;99.90;;;;;;4933277;29;20051;-63
2024/03/07 11:44:56;;;;;;;47.88;28.73;;;7.90;99.90;;;;;;4929602;29;20062;-63
2024/03/07 11:47:28;;;;;;;50.42;31.35;;;7.80;99.90;;;;;;4928914;29;20062;-63
2024/03/07 11:49:57;;;;;;;50.50;30.95;;;7.90;99.90;;;;;;4932294;29;20047;-63
2024/03/07 11:52:27;;;;;;;54.92;29.58;;;7.90;99.90;;;;;;4928866;29;20047;-63
2024/03/07 11:55:03;;;;;;;49.25;31.02;;;7.80;99.90;;;;;;4929483;29;20504;-63
2024/03/07 11:57:34;;;;;;;52.53;31.17;;;7.80;99.90;;;;;;4931113;29;20418;-63
2024/03/07 12:00:08;;;;;;;46.67;30.02;;;7.80;99.90;;;;;;4935758;29;20043;-63
2024/03/07 12:02:37;;;;;;;50.40;31.17;;;7.80;99.90;;;;;;4935420;29;20058;-63
2024/03/07 12:05:08;;;;;;;52.55;31.20;;;7.90;99.90;;;;;;4934345;29;20051;-63
2024/03/07 12:07:35;;;;;;;51.70;31.45;;;8.00;99.90;;;;;;4931960;29;20482;-63
2024/03/07 12:10:03;;;;;;;52.08;31.77;;;8.10;99.90;;;;;;4921668;29;20043;-63
2024/03/07 12:12:30;;;;;;;49.58;30.83;;;8.00;99.90;;;;;;4937523;29;20051;-63
2024/03/07 12:14:58;;;;;;;45.83;30.42;;;8.10;99.90;;;;;;4935297;29;20048;-63
2024/03/07 12:17:25;;;;;;;56.13;31.70;;;8.20;99.90;;;;;;4934169;29;20047;-63
2024/03/07 12:19:52;;;;;;;43.60;30.08;;;8.40;99.90;;;;;;4933374;29;20583;-63
2024/03/07 12:22:24;;;;;;;46.47;30.10;;;8.40;99.90;;;;;;4944900;23;20039;-63
2024/03/07 12:25:03;;;;;;;43.10;28.00;;;8.30;99.90;;;;;;4939526;29;20055;-64
2024/03/07 12:27:30;;;;;;;44.78;28.83;;;8.30;99.90;;;;;;4944778;29;20090;-64
2024/03/07 12:29:56;;;;;;;42.67;28.40;;;8.30;99.90;;;;;;4947748;28;20109;-64
2024/03/07 12:32:25;;;;;;;46.97;29.38;;;8.40;99.90;;;;;;4952732;28;20047;-64
2024/03/07 12:34:52;;;;;;;44.95;30.50;;;8.40;99.90;;;;;;4954177;28;20043;-64
2024/03/07 12:37:26;;;;;;;51.63;29.27;;;8.40;99.90;;;;;;4954009;28;20047;-64
2024/03/07 12:40:01;;;;;;;44.80;28.77;;;8.40;99.90;;;;;;4960524;28;20110;-64
2024/03/07 12:42:30;;;;;;;46.10;28.23;;;8.40;99.90;;;;;;4953629;28;20412;-64
2024/03/07 12:44:59;;;;;;;39.17;25.57;;;8.40;99.90;;;;;;4953393;28;20366;-64
2024/03/07 12:47:26;;;;;;;39.90;26.17;;;8.60;99.90;;;;;;4936550;29;20398;-64